Latest  Newer  Older  Last 2 hours slideshow  Last 24 hours slideshow  Refresh every 5 minutes 
Current image  Latest image  Rain/snow radar  Cloud coverage sat images 

All time is UTC (add 2 hours to UTC in wintertime, 3 hours to UTC in DST for Latvia local time)

2022/06/30 16:50 EVRA 301650Z 11003KT 060V150 9999 FEW050CB 27/20 Q1017 NOSIG
2022/06/30 16:50 EVLA 301650Z AUTO 36003KT 310V060 CAVOK 23/19 Q1016
2022/06/30 16:50 EVVA 301650Z AUTO 34005KT 310V010 9999 SCT028 SCT034 22/21 Q1017
2022/06/30 16:50 EYKA 301650Z 10006KT CAVOK 28/20 Q1016
2022/06/30 16:50 EYPA 301650Z 33003KT 270V020 CAVOK 25/21 Q1015
2022/06/30 16:50 EYSA 301650Z 11005KT CAVOK 27/22 Q1017 NOSIG
2022/06/30 16:50 EYVI 301650Z 11006KT CAVOK 27/18 Q1017 NOSIG
2022/06/30 15:20 EEKA 301520Z 07005KT CAVOK 24/20 Q1018
2022/06/30 16:50 EEKE 301650Z 13006KT 9999 FEW049 25/20 Q1017
2022/06/30 16:50 EEPU 301650Z AUTO 11006KT 9999 FEW047/// 27/18 Q1018
2022/06/30 16:50 EETN 301650Z 06007KT 9999 FEW040 26/17 Q1018 NOSIG
2022/06/30 16:50 EETU 301650Z 10007KT CAVOK 26/15 Q1019
   RIGA AIRPORT     EVRA               56 55N  023 58E   10   X     T          6 LV
   LIEPAJA INTL     EVLA        26406  56 31N  021 06E    4   X                8 LV
   VENTPILS         EVVA               57 21N  021 33E    6   X                8 LV
   KAUNAS           EYKA               54 54N  023 55E   77   X     T          6 LT
   PALANGA INTL     EYPA               55 55N  021 03E   10   X                6 LT
   SIAULIAI INTL    EYSA               55 54N  023 24E  135   X     T          6 LT
   VILNIUS INTL     EYVI        26730  54 38N  025 17E  197   X     T          6 LT
   KARDLA           EEKA        26116  58 59N  022 50E    4   X                8 EE
   KURESSAARE       EEKE               58 14N  022 31E    4   X                8 EE
   PARNU            EEPU               58 25N  024 28E   14   X                8 EE
   TALLINN          EETN        26038  59 24N  024 49E   40   X     T          8 EE
   TARTU            EETU               58 19N  026 41E   67   X                8 EE